Pittsburgh, Pennsylvania
Current Conditions -  °F | °C
As of 9:53 AM on Tuesday 21 Oct 2014 (Local Time) from KAGC Reporting Station
Haze Haze  
Wind Chill: 11°   Ceiling: 300
Heat Index: 11°   Visibility: 2mi
Dew Point:   Wind: 6mph
Humidity: 86%   Direction: 270°W
Pressure: 29.87"   Gusts: NA
Location:  40.44°N, 80°W
Report Text: KAGC 211353Z 27005KT 2SM BR OVC003 11/08 A2987 RMK AO2 SLP122 T01060083
Loading
Personal Weather Stations






























Interactive Weather Map New forecast layout! Learn more

10-Day Weather Forecast

Advertisements
Track Severe Weather on mobile